Aviation Digital Data Service (ADDS)

Output produced by METARs form (0430 UTC 19 August 2019)
found at http://www.aviationweather.gov/metar/data/
 
Forecast for: GMML (LAAYOUNE/HASSAN , MA)
Text: TAF GMML 182300Z 1900/2006 04020KT 8000 NSC
Forecast period: 0000 to 2100 UTC 19 August 2019
Forecast type: FROM: standard forecast or significant change
Winds: from the NE (40 degrees) at 23 MPH (20 knots; 10.3 m/s)
Visibility: 5 miles (8 km)
Ceiling: unknown
Clouds: missing
Weather: no significant weather forecast for this period
Text: PROB40
Forecast period: 1200 to 1800 UTC 19 August 2019
Forecast type: TEMPORARY: The following changes expected for less than half the time period
Visibility: 1.86 miles (2.99 km)
Ceiling: unknown
Clouds: missing
Weather: SA  (sand)
Text: TEMPO 1912/1918 3000 SA
Forecast period: 2100 UTC 19 August 2019 to 0600 UTC 20 August 2019
Forecast type: BECOMING: Conditions expected to become as follows by 2300 UTC 19 August 2019
Winds: from the NE (40 degrees) at 23 MPH (20 knots; 10.3 m/s)
Visibility: 5 miles (8 km)
Ceiling: at least 12,000 feet AGL
Clouds: scattered clouds at 1000 feet AGL
Weather: no significant weather forecast for this period